sensor_id;sensor_type;location;lat;lon;timestamp;P1;durP1;ratioP1;P2;durP2;ratioP2
37997;SDS011;24079;51.824;4.682;2023-11-19T00:02:07;22.65;;;6.53;;
37997;SDS011;24079;51.824;4.682;2023-11-19T00:04:36;28.17;;;6.85;;
37997;SDS011;24079;51.824;4.682;2023-11-19T00:07:04;29.73;;;6.47;;
37997;SDS011;24079;51.824;4.682;2023-11-19T00:09:31;29.45;;;5.75;;
37997;SDS011;24079;51.824;4.682;2023-11-19T00:11:57;35.55;;;5.95;;
37997;SDS011;24079;51.824;4.682;2023-11-19T00:14:25;29.02;;;5.68;;
37997;SDS011;24079;51.824;4.682;2023-11-19T00:16:51;38.25;;;6.40;;
37997;SDS011;24079;51.824;4.682;2023-11-19T00:19:17;38.03;;;6.28;;
37997;SDS011;24079;51.824;4.682;2023-11-19T00:21:42;39.35;;;5.90;;
37997;SDS011;24079;51.824;4.682;2023-11-19T00:24:08;32.63;;;6.03;;
37997;SDS011;24079;51.824;4.682;2023-11-19T00:26:34;33.72;;;5.60;;
37997;SDS011;24079;51.824;4.682;2023-11-19T00:29:00;37.05;;;5.40;;
37997;SDS011;24079;51.824;4.682;2023-11-19T00:31:26;33.38;;;5.07;;
37997;SDS011;24079;51.824;4.682;2023-11-19T00:33:53;51.45;;;7.65;;
37997;SDS011;24079;51.824;4.682;2023-11-19T00:36:18;36.35;;;6.88;;
37997;SDS011;24079;51.824;4.682;2023-11-19T00:38:44;43.13;;;6.40;;
37997;SDS011;24079;51.824;4.682;2023-11-19T00:41:10;37.30;;;6.30;;
37997;SDS011;24079;51.824;4.682;2023-11-19T00:43:35;35.05;;;5.57;;
37997;SDS011;24079;51.824;4.682;2023-11-19T00:46:01;45.10;;;7.55;;
37997;SDS011;24079;51.824;4.682;2023-11-19T00:48:28;42.38;;;5.65;;
37997;SDS011;24079;51.824;4.682;2023-11-19T00:50:54;39.60;;;6.00;;
37997;SDS011;24079;51.824;4.682;2023-11-19T00:53:19;45.50;;;6.47;;
37997;SDS011;24079;51.824;4.682;2023-11-19T00:55:45;47.60;;;5.72;;
37997;SDS011;24079;51.824;4.682;2023-11-19T00:58:10;38.67;;;6.68;;
37997;SDS011;24079;51.824;4.682;2023-11-19T01:00:36;38.88;;;5.65;;
37997;SDS011;24079;51.824;4.682;2023-11-19T01:03:02;37.08;;;5.80;;
37997;SDS011;24079;51.824;4.682;2023-11-19T01:05:27;44.22;;;7.75;;
37997;SDS011;24079;51.824;4.682;2023-11-19T01:07:53;45.67;;;7.07;;
37997;SDS011;24079;51.824;4.682;2023-11-19T01:10:19;46.55;;;7.15;;
37997;SDS011;24079;51.824;4.682;2023-11-19T01:12:45;55.78;;;7.53;;
37997;SDS011;24079;51.824;4.682;2023-11-19T01:15:11;47.45;;;6.47;;
37997;SDS011;24079;51.824;4.682;2023-11-19T01:17:38;51.15;;;7.95;;
37997;SDS011;24079;51.824;4.682;2023-11-19T01:20:04;48.25;;;8.80;;
37997;SDS011;24079;51.824;4.682;2023-11-19T01:22:31;57.70;;;7.80;;
37997;SDS011;24079;51.824;4.682;2023-11-19T01:24:57;54.53;;;7.80;;
37997;SDS011;24079;51.824;4.682;2023-11-19T01:27:23;58.97;;;9.25;;
37997;SDS011;24079;51.824;4.682;2023-11-19T01:29:49;61.88;;;8.75;;
37997;SDS011;24079;51.824;4.682;2023-11-19T01:32:15;52.95;;;8.30;;
37997;SDS011;24079;51.824;4.682;2023-11-19T01:34:41;56.20;;;8.63;;
37997;SDS011;24079;51.824;4.682;2023-11-19T01:37:06;55.90;;;9.30;;
37997;SDS011;24079;51.824;4.682;2023-11-19T01:39:34;51.60;;;8.80;;
37997;SDS011;24079;51.824;4.682;2023-11-19T01:42:00;61.33;;;9.13;;
37997;SDS011;24079;51.824;4.682;2023-11-19T01:44:25;60.10;;;9.88;;
37997;SDS011;24079;51.824;4.682;2023-11-19T01:46:51;67.93;;;11.32;;
37997;SDS011;24079;51.824;4.682;2023-11-19T01:49:17;61.65;;;8.88;;
37997;SDS011;24079;51.824;4.682;2023-11-19T01:51:44;66.82;;;8.82;;
37997;SDS011;24079;51.824;4.682;2023-11-19T01:54:10;57.25;;;8.80;;
37997;SDS011;24079;51.824;4.682;2023-11-19T01:56:37;72.10;;;10.80;;
37997;SDS011;24079;51.824;4.682;2023-11-19T01:59:08;64.65;;;9.50;;
37997;SDS011;24079;51.824;4.682;2023-11-19T02:01:36;67.43;;;10.88;;
37997;SDS011;24079;51.824;4.682;2023-11-19T02:04:05;72.03;;;9.73;;
37997;SDS011;24079;51.824;4.682;2023-11-19T02:06:31;75.72;;;11.40;;
37997;SDS011;24079;51.824;4.682;2023-11-19T02:08:59;61.88;;;9.45;;
37997;SDS011;24079;51.824;4.682;2023-11-19T02:11:25;67.07;;;9.65;;
37997;SDS011;24079;51.824;4.682;2023-11-19T02:13:54;66.90;;;10.35;;
37997;SDS011;24079;51.824;4.682;2023-11-19T02:16:23;78.78;;;10.20;;
37997;SDS011;24079;51.824;4.682;2023-11-19T02:18:48;75.88;;;12.05;;
37997;SDS011;24079;51.824;4.682;2023-11-19T02:21:14;67.85;;;10.70;;
37997;SDS011;24079;51.824;4.682;2023-11-19T02:23:40;78.18;;;11.95;;
37997;SDS011;24079;51.824;4.682;2023-11-19T02:26:14;69.82;;;11.02;;
37997;SDS011;24079;51.824;4.682;2023-11-19T02:29:03;70.65;;;11.27;;
37997;SDS011;24079;51.824;4.682;2023-11-19T02:31:29;67.28;;;9.65;;
37997;SDS011;24079;51.824;4.682;2023-11-19T02:33:55;65.55;;;10.63;;
37997;SDS011;24079;51.824;4.682;2023-11-19T02:36:20;56.28;;;10.02;;
37997;SDS011;24079;51.824;4.682;2023-11-19T02:38:46;71.45;;;10.70;;
37997;SDS011;24079;51.824;4.682;2023-11-19T02:41:13;64.15;;;8.57;;
37997;SDS011;24079;51.824;4.682;2023-11-19T02:43:39;68.60;;;10.75;;
37997;SDS011;24079;51.824;4.682;2023-11-19T02:46:05;63.58;;;10.00;;
37997;SDS011;24079;51.824;4.682;2023-11-19T02:48:32;69.70;;;10.25;;
37997;SDS011;24079;51.824;4.682;2023-11-19T02:51:01;69.80;;;9.88;;
37997;SDS011;24079;51.824;4.682;2023-11-19T02:53:29;78.10;;;10.43;;
37997;SDS011;24079;51.824;4.682;2023-11-19T02:55:55;73.35;;;10.73;;
37997;SDS011;24079;51.824;4.682;2023-11-19T02:58:27;72.40;;;10.73;;
37997;SDS011;24079;51.824;4.682;2023-11-19T03:00:54;73.78;;;11.35;;
37997;SDS011;24079;51.824;4.682;2023-11-19T03:03:25;72.93;;;11.57;;
37997;SDS011;24079;51.824;4.682;2023-11-19T03:05:59;69.50;;;9.98;;
37997;SDS011;24079;51.824;4.682;2023-11-19T03:08:25;82.30;;;10.90;;
37997;SDS011;24079;51.824;4.682;2023-11-19T03:10:51;64.47;;;10.48;;
37997;SDS011;24079;51.824;4.682;2023-11-19T03:13:17;59.10;;;11.60;;
37997;SDS011;24079;51.824;4.682;2023-11-19T03:15:43;67.95;;;10.55;;
37997;SDS011;24079;51.824;4.682;2023-11-19T03:18:10;66.55;;;9.80;;
37997;SDS011;24079;51.824;4.682;2023-11-19T03:20:36;62.40;;;9.75;;
37997;SDS011;24079;51.824;4.682;2023-11-19T03:23:02;76.35;;;10.48;;
37997;SDS011;24079;51.824;4.682;2023-11-19T03:25:28;62.38;;;9.35;;
37997;SDS011;24079;51.824;4.682;2023-11-19T03:27:59;90.35;;;13.25;;
37997;SDS011;24079;51.824;4.682;2023-11-19T03:30:26;54.63;;;8.95;;
37997;SDS011;24079;51.824;4.682;2023-11-19T03:32:57;72.85;;;9.80;;
37997;SDS011;24079;51.824;4.682;2023-11-19T03:35:23;72.95;;;11.15;;
37997;SDS011;24079;51.824;4.682;2023-11-19T03:37:50;68.18;;;10.27;;
37997;SDS011;24079;51.824;4.682;2023-11-19T03:40:17;77.30;;;10.40;;
37997;SDS011;24079;51.824;4.682;2023-11-19T03:42:47;81.97;;;13.75;;
37997;SDS011;24079;51.824;4.682;2023-11-19T03:45:13;63.17;;;9.38;;
37997;SDS011;24079;51.824;4.682;2023-11-19T03:47:41;69.00;;;9.85;;
37997;SDS011;24079;51.824;4.682;2023-11-19T03:50:07;66.93;;;10.25;;
37997;SDS011;24079;51.824;4.682;2023-11-19T03:52:34;59.55;;;10.45;;
37997;SDS011;24079;51.824;4.682;2023-11-19T03:55:01;62.50;;;10.43;;
37997;SDS011;24079;51.824;4.682;2023-11-19T03:57:28;66.38;;;9.80;;
37997;SDS011;24079;51.824;4.682;2023-11-19T03:59:54;68.32;;;9.10;;
37997;SDS011;24079;51.824;4.682;2023-11-19T04:02:20;65.35;;;9.38;;
37997;SDS011;24079;51.824;4.682;2023-11-19T04:04:46;66.72;;;9.50;;
37997;SDS011;24079;51.824;4.682;2023-11-19T04:07:13;79.50;;;11.30;;
37997;SDS011;24079;51.824;4.682;2023-11-19T04:09:39;66.47;;;10.40;;
37997;SDS011;24079;51.824;4.682;2023-11-19T04:12:05;64.68;;;9.95;;
37997;SDS011;24079;51.824;4.682;2023-11-19T04:14:31;65.07;;;10.00;;
37997;SDS011;24079;51.824;4.682;2023-11-19T04:16:57;65.00;;;9.52;;
37997;SDS011;24079;51.824;4.682;2023-11-19T04:19:22;76.47;;;12.88;;
37997;SDS011;24079;51.824;4.682;2023-11-19T04:21:49;63.42;;;10.85;;
37997;SDS011;24079;51.824;4.682;2023-11-19T04:24:15;67.97;;;9.57;;
37997;SDS011;24079;51.824;4.682;2023-11-19T04:26:41;66.35;;;9.65;;
37997;SDS011;24079;51.824;4.682;2023-11-19T04:29:11;67.10;;;10.15;;
37997;SDS011;24079;51.824;4.682;2023-11-19T04:31:44;66.45;;;10.65;;
37997;SDS011;24079;51.824;4.682;2023-11-19T04:34:11;67.55;;;9.73;;
37997;SDS011;24079;51.824;4.682;2023-11-19T04:36:37;75.47;;;10.20;;
37997;SDS011;24079;51.824;4.682;2023-11-19T04:39:04;71.70;;;10.68;;
37997;SDS011;24079;51.824;4.682;2023-11-19T04:41:47;69.65;;;12.18;;
37997;SDS011;24079;51.824;4.682;2023-11-19T04:44:36;67.03;;;10.00;;
37997;SDS011;24079;51.824;4.682;2023-11-19T04:47:21;65.97;;;9.60;;
37997;SDS011;24079;51.824;4.682;2023-11-19T04:50:07;66.78;;;10.57;;
37997;SDS011;24079;51.824;4.682;2023-11-19T04:52:53;66.97;;;10.02;;
37997;SDS011;24079;51.824;4.682;2023-11-19T04:55:38;55.45;;;8.88;;
37997;SDS011;24079;51.824;4.682;2023-11-19T04:58:24;62.13;;;10.50;;
37997;SDS011;24079;51.824;4.682;2023-11-19T05:00:49;62.00;;;10.93;;
37997;SDS011;24079;51.824;4.682;2023-11-19T05:03:15;75.32;;;10.73;;
37997;SDS011;24079;51.824;4.682;2023-11-19T05:05:40;56.78;;;9.93;;
37997;SDS011;24079;51.824;4.682;2023-11-19T05:08:06;63.45;;;10.10;;
37997;SDS011;24079;51.824;4.682;2023-11-19T05:10:31;66.20;;;10.25;;
37997;SDS011;24079;51.824;4.682;2023-11-19T05:12:57;68.80;;;9.65;;
37997;SDS011;24079;51.824;4.682;2023-11-19T05:15:23;63.60;;;9.48;;
37997;SDS011;24079;51.824;4.682;2023-11-19T05:17:49;60.92;;;9.32;;
37997;SDS011;24079;51.824;4.682;2023-11-19T05:20:14;68.47;;;10.18;;
37997;SDS011;24079;51.824;4.682;2023-11-19T05:22:40;69.25;;;10.98;;
37997;SDS011;24079;51.824;4.682;2023-11-19T05:25:07;72.95;;;11.00;;
37997;SDS011;24079;51.824;4.682;2023-11-19T05:27:37;76.75;;;10.68;;
37997;SDS011;24079;51.824;4.682;2023-11-19T05:30:04;61.58;;;10.20;;
37997;SDS011;24079;51.824;4.682;2023-11-19T05:32:33;60.97;;;9.93;;
37997;SDS011;24079;51.824;4.682;2023-11-19T05:34:59;74.63;;;11.00;;
37997;SDS011;24079;51.824;4.682;2023-11-19T05:37:25;71.03;;;10.50;;
37997;SDS011;24079;51.824;4.682;2023-11-19T05:39:51;68.15;;;10.38;;
37997;SDS011;24079;51.824;4.682;2023-11-19T05:42:17;76.75;;;10.27;;
37997;SDS011;24079;51.824;4.682;2023-11-19T05:44:43;65.40;;;9.98;;
37997;SDS011;24079;51.824;4.682;2023-11-19T05:47:09;68.75;;;10.85;;
37997;SDS011;24079;51.824;4.682;2023-11-19T05:49:35;69.05;;;10.07;;
37997;SDS011;24079;51.824;4.682;2023-11-19T05:52:00;68.30;;;9.63;;
37997;SDS011;24079;51.824;4.682;2023-11-19T05:54:28;70.70;;;10.95;;
37997;SDS011;24079;51.824;4.682;2023-11-19T05:56:54;64.85;;;9.95;;
37997;SDS011;24079;51.824;4.682;2023-11-19T05:59:20;76.70;;;11.57;;
37997;SDS011;24079;51.824;4.682;2023-11-19T06:01:47;63.55;;;8.82;;
37997;SDS011;24079;51.824;4.682;2023-11-19T06:04:13;68.75;;;9.77;;
37997;SDS011;24079;51.824;4.682;2023-11-19T06:06:39;72.15;;;10.23;;
37997;SDS011;24079;51.824;4.682;2023-11-19T06:09:05;74.13;;;10.55;;
37997;SDS011;24079;51.824;4.682;2023-11-19T06:11:31;68.65;;;10.95;;
37997;SDS011;24079;51.824;4.682;2023-11-19T06:14:01;68.95;;;10.18;;
37997;SDS011;24079;51.824;4.682;2023-11-19T06:16:27;77.10;;;11.52;;
37997;SDS011;24079;51.824;4.682;2023-11-19T06:18:52;67.05;;;10.25;;
37997;SDS011;24079;51.824;4.682;2023-11-19T06:21:18;71.10;;;11.25;;
37997;SDS011;24079;51.824;4.682;2023-11-19T06:23:44;61.95;;;9.23;;
37997;SDS011;24079;51.824;4.682;2023-11-19T06:26:09;65.28;;;9.45;;
37997;SDS011;24079;51.824;4.682;2023-11-19T06:28:35;69.35;;;10.63;;
37997;SDS011;24079;51.824;4.682;2023-11-19T06:31:01;66.65;;;9.30;;
37997;SDS011;24079;51.824;4.682;2023-11-19T06:33:28;69.47;;;10.98;;
37997;SDS011;24079;51.824;4.682;2023-11-19T06:35:53;66.00;;;9.27;;
37997;SDS011;24079;51.824;4.682;2023-11-19T06:38:19;69.57;;;10.35;;
37997;SDS011;24079;51.824;4.682;2023-11-19T06:40:45;77.50;;;10.85;;
37997;SDS011;24079;51.824;4.682;2023-11-19T06:43:11;68.97;;;10.52;;
37997;SDS011;24079;51.824;4.682;2023-11-19T06:45:36;71.20;;;9.70;;
37997;SDS011;24079;51.824;4.682;2023-11-19T06:48:02;57.35;;;8.85;;
37997;SDS011;24079;51.824;4.682;2023-11-19T06:50:29;74.38;;;9.50;;
37997;SDS011;24079;51.824;4.682;2023-11-19T06:52:54;58.05;;;8.55;;
37997;SDS011;24079;51.824;4.682;2023-11-19T06:55:20;61.92;;;9.70;;
37997;SDS011;24079;51.824;4.682;2023-11-19T06:57:46;65.00;;;10.63;;
37997;SDS011;24079;51.824;4.682;2023-11-19T07:00:11;68.55;;;10.45;;
37997;SDS011;24079;51.824;4.682;2023-11-19T07:02:37;65.80;;;9.95;;
37997;SDS011;24079;51.824;4.682;2023-11-19T07:05:03;60.05;;;7.90;;
37997;SDS011;24079;51.824;4.682;2023-11-19T07:07:33;66.82;;;8.90;;
37997;SDS011;24079;51.824;4.682;2023-11-19T07:10:00;59.90;;;8.60;;
37997;SDS011;24079;51.824;4.682;2023-11-19T07:12:27;60.15;;;9.60;;
37997;SDS011;24079;51.824;4.682;2023-11-19T07:14:53;59.15;;;9.65;;
37997;SDS011;24079;51.824;4.682;2023-11-19T07:17:20;65.28;;;9.43;;
37997;SDS011;24079;51.824;4.682;2023-11-19T07:19:46;54.75;;;8.25;;
37997;SDS011;24079;51.824;4.682;2023-11-19T07:22:12;61.67;;;9.80;;
37997;SDS011;24079;51.824;4.682;2023-11-19T07:24:40;55.13;;;8.60;;
37997;SDS011;24079;51.824;4.682;2023-11-19T07:27:06;62.85;;;8.38;;
37997;SDS011;24079;51.824;4.682;2023-11-19T07:29:34;60.38;;;10.02;;
37997;SDS011;24079;51.824;4.682;2023-11-19T07:32:00;55.58;;;8.55;;
37997;SDS011;24079;51.824;4.682;2023-11-19T07:34:27;51.47;;;9.25;;
37997;SDS011;24079;51.824;4.682;2023-11-19T07:36:54;50.85;;;7.82;;
37997;SDS011;24079;51.824;4.682;2023-11-19T07:39:24;61.33;;;9.02;;
37997;SDS011;24079;51.824;4.682;2023-11-19T07:41:50;62.67;;;9.18;;
37997;SDS011;24079;51.824;4.682;2023-11-19T07:44:15;66.55;;;8.68;;
37997;SDS011;24079;51.824;4.682;2023-11-19T07:46:41;60.83;;;8.90;;
37997;SDS011;24079;51.824;4.682;2023-11-19T07:49:10;54.55;;;8.32;;
37997;SDS011;24079;51.824;4.682;2023-11-19T07:51:36;54.95;;;8.32;;
37997;SDS011;24079;51.824;4.682;2023-11-19T07:54:01;54.58;;;8.13;;
37997;SDS011;24079;51.824;4.682;2023-11-19T07:56:27;57.72;;;8.40;;
37997;SDS011;24079;51.824;4.682;2023-11-19T07:58:52;53.72;;;8.05;;
37997;SDS011;24079;51.824;4.682;2023-11-19T08:01:18;55.00;;;9.18;;
37997;SDS011;24079;51.824;4.682;2023-11-19T08:03:44;54.95;;;7.85;;
37997;SDS011;24079;51.824;4.682;2023-11-19T08:06:09;62.45;;;8.93;;
37997;SDS011;24079;51.824;4.682;2023-11-19T08:08:35;71.18;;;8.57;;
37997;SDS011;24079;51.824;4.682;2023-11-19T08:11:03;56.08;;;9.55;;
37997;SDS011;24079;51.824;4.682;2023-11-19T08:13:30;58.42;;;8.10;;
37997;SDS011;24079;51.824;4.682;2023-11-19T08:15:56;65.00;;;8.43;;
37997;SDS011;24079;51.824;4.682;2023-11-19T08:18:23;57.72;;;8.15;;
37997;SDS011;24079;51.824;4.682;2023-11-19T08:20:49;53.83;;;7.70;;
37997;SDS011;24079;51.824;4.682;2023-11-19T08:23:18;56.35;;;8.70;;
37997;SDS011;24079;51.824;4.682;2023-11-19T08:25:44;56.45;;;7.65;;
37997;SDS011;24079;51.824;4.682;2023-11-19T08:28:10;54.97;;;8.25;;
37997;SDS011;24079;51.824;4.682;2023-11-19T08:30:36;57.70;;;8.15;;
37997;SDS011;24079;51.824;4.682;2023-11-19T08:33:01;65.57;;;8.45;;
37997;SDS011;24079;51.824;4.682;2023-11-19T08:35:31;53.17;;;8.25;;
37997;SDS011;24079;51.824;4.682;2023-11-19T08:37:56;48.92;;;7.80;;
37997;SDS011;24079;51.824;4.682;2023-11-19T08:40:23;53.13;;;9.40;;
37997;SDS011;24079;51.824;4.682;2023-11-19T08:42:50;46.40;;;7.82;;
37997;SDS011;24079;51.824;4.682;2023-11-19T08:45:16;62.72;;;9.35;;
37997;SDS011;24079;51.824;4.682;2023-11-19T08:47:42;52.67;;;8.45;;
37997;SDS011;24079;51.824;4.682;2023-11-19T08:50:07;55.78;;;8.55;;
37997;SDS011;24079;51.824;4.682;2023-11-19T08:52:34;51.60;;;8.93;;
37997;SDS011;24079;51.824;4.682;2023-11-19T08:55:00;48.30;;;8.18;;
37997;SDS011;24079;51.824;4.682;2023-11-19T08:57:27;57.42;;;8.82;;
37997;SDS011;24079;51.824;4.682;2023-11-19T08:59:53;53.17;;;8.80;;
37997;SDS011;24079;51.824;4.682;2023-11-19T09:02:19;58.17;;;8.95;;
37997;SDS011;24079;51.824;4.682;2023-11-19T09:04:45;59.10;;;8.98;;
37997;SDS011;24079;51.824;4.682;2023-11-19T09:07:11;51.35;;;8.90;;
37997;SDS011;24079;51.824;4.682;2023-11-19T09:09:37;50.75;;;9.35;;
37997;SDS011;24079;51.824;4.682;2023-11-19T09:12:03;52.65;;;7.95;;
37997;SDS011;24079;51.824;4.682;2023-11-19T09:14:29;51.55;;;8.35;;
37997;SDS011;24079;51.824;4.682;2023-11-19T09:16:56;52.05;;;8.38;;
37997;SDS011;24079;51.824;4.682;2023-11-19T09:19:23;47.22;;;7.55;;
37997;SDS011;24079;51.824;4.682;2023-11-19T09:21:50;47.72;;;8.25;;
37997;SDS011;24079;51.824;4.682;2023-11-19T09:24:16;52.35;;;8.32;;
37997;SDS011;24079;51.824;4.682;2023-11-19T09:26:42;56.83;;;10.18;;
37997;SDS011;24079;51.824;4.682;2023-11-19T09:29:08;58.05;;;8.73;;
37997;SDS011;24079;51.824;4.682;2023-11-19T09:31:34;49.75;;;7.22;;
37997;SDS011;24079;51.824;4.682;2023-11-19T09:34:00;55.72;;;8.88;;
37997;SDS011;24079;51.824;4.682;2023-11-19T09:36:26;53.95;;;8.13;;
37997;SDS011;24079;51.824;4.682;2023-11-19T09:38:52;51.45;;;8.77;;
37997;SDS011;24079;51.824;4.682;2023-11-19T09:41:18;51.10;;;7.80;;
37997;SDS011;24079;51.824;4.682;2023-11-19T09:43:44;50.83;;;8.32;;
37997;SDS011;24079;51.824;4.682;2023-11-19T09:46:10;61.17;;;9.13;;
37997;SDS011;24079;51.824;4.682;2023-11-19T09:48:38;49.60;;;8.75;;
37997;SDS011;24079;51.824;4.682;2023-11-19T09:51:05;55.83;;;8.93;;
37997;SDS011;24079;51.824;4.682;2023-11-19T09:53:31;50.53;;;9.00;;
37997;SDS011;24079;51.824;4.682;2023-11-19T09:55:57;54.55;;;8.52;;
37997;SDS011;24079;51.824;4.682;2023-11-19T09:58:25;60.10;;;9.25;;
37997;SDS011;24079;51.824;4.682;2023-11-19T10:00:51;53.40;;;8.75;;
37997;SDS011;24079;51.824;4.682;2023-11-19T10:03:17;59.08;;;8.20;;
37997;SDS011;24079;51.824;4.682;2023-11-19T10:05:42;53.53;;;8.35;;
37997;SDS011;24079;51.824;4.682;2023-11-19T10:08:08;58.50;;;8.05;;
37997;SDS011;24079;51.824;4.682;2023-11-19T10:10:36;53.67;;;8.40;;
37997;SDS011;24079;51.824;4.682;2023-11-19T10:13:02;54.72;;;8.73;;
37997;SDS011;24079;51.824;4.682;2023-11-19T10:15:28;54.60;;;8.80;;
37997;SDS011;24079;51.824;4.682;2023-11-19T10:18:00;50.67;;;8.07;;
37997;SDS011;24079;51.824;4.682;2023-11-19T10:20:26;48.63;;;8.32;;
37997;SDS011;24079;51.824;4.682;2023-11-19T10:22:57;54.45;;;8.70;;
37997;SDS011;24079;51.824;4.682;2023-11-19T10:25:24;58.65;;;7.60;;
37997;SDS011;24079;51.824;4.682;2023-11-19T10:27:51;47.97;;;8.48;;
37997;SDS011;24079;51.824;4.682;2023-11-19T10:30:20;57.03;;;9.07;;
37997;SDS011;24079;51.824;4.682;2023-11-19T10:33:02;68.22;;;9.68;;
37997;SDS011;24079;51.824;4.682;2023-11-19T10:35:32;53.47;;;9.63;;
37997;SDS011;24079;51.824;4.682;2023-11-19T10:37:59;60.50;;;8.65;;
37997;SDS011;24079;51.824;4.682;2023-11-19T10:40:47;53.92;;;8.23;;
37997;SDS011;24079;51.824;4.682;2023-11-19T10:43:12;54.13;;;8.88;;
37997;SDS011;24079;51.824;4.682;2023-11-19T10:45:38;48.60;;;8.93;;
37997;SDS011;24079;51.824;4.682;2023-11-19T10:48:04;53.55;;;7.78;;
37997;SDS011;24079;51.824;4.682;2023-11-19T10:50:34;39.50;;;6.68;;
37997;SDS011;24079;51.824;4.682;2023-11-19T10:53:01;57.63;;;8.63;;
37997;SDS011;24079;51.824;4.682;2023-11-19T10:55:29;58.67;;;9.07;;
37997;SDS011;24079;51.824;4.682;2023-11-19T10:57:58;58.72;;;8.98;;
37997;SDS011;24079;51.824;4.682;2023-11-19T11:00:25;47.90;;;8.48;;
37997;SDS011;24079;51.824;4.682;2023-11-19T11:02:55;51.55;;;8.55;;
37997;SDS011;24079;51.824;4.682;2023-11-19T11:05:25;51.33;;;8.82;;
37997;SDS011;24079;51.824;4.682;2023-11-19T11:07:52;42.08;;;8.10;;
37997;SDS011;24079;51.824;4.682;2023-11-19T11:10:21;51.17;;;7.85;;
37997;SDS011;24079;51.824;4.682;2023-11-19T11:12:51;40.83;;;6.68;;
37997;SDS011;24079;51.824;4.682;2023-11-19T11:15:24;35.92;;;5.72;;
37997;SDS011;24079;51.824;4.682;2023-11-19T11:17:56;36.88;;;5.75;;
37997;SDS011;24079;51.824;4.682;2023-11-19T11:20:27;32.63;;;5.47;;
37997;SDS011;24079;51.824;4.682;2023-11-19T11:30:46;39.00;;;6.75;;
37997;SDS011;24079;51.824;4.682;2023-11-19T11:36:20;46.63;;;8.95;;
37997;SDS011;24079;51.824;4.682;2023-11-19T11:38:48;42.22;;;7.93;;
37997;SDS011;24079;51.824;4.682;2023-11-19T11:43:48;43.00;;;6.97;;
37997;SDS011;24079;51.824;4.682;2023-11-19T11:54:10;44.80;;;7.00;;
37997;SDS011;24079;51.824;4.682;2023-11-19T11:56:37;46.78;;;7.72;;
37997;SDS011;24079;51.824;4.682;2023-11-19T11:59:37;41.95;;;7.15;;
37997;SDS011;24079;51.824;4.682;2023-11-19T12:02:08;37.78;;;6.40;;
37997;SDS011;24079;51.824;4.682;2023-11-19T12:04:35;50.95;;;6.90;;
37997;SDS011;24079;51.824;4.682;2023-11-19T12:09:47;44.50;;;7.30;;
37997;SDS011;24079;51.824;4.682;2023-11-19T12:12:19;49.25;;;8.35;;
37997;SDS011;24079;51.824;4.682;2023-11-19T12:20:05;42.90;;;7.80;;
37997;SDS011;24079;51.824;4.682;2023-11-19T12:22:38;43.92;;;7.63;;
37997;SDS011;24079;51.824;4.682;2023-11-19T12:25:05;42.50;;;6.90;;
37997;SDS011;24079;51.824;4.682;2023-11-19T12:27:31;53.83;;;8.82;;
37997;SDS011;24079;51.824;4.682;2023-11-19T12:30:01;48.58;;;7.18;;
37997;SDS011;24079;51.824;4.682;2023-11-19T12:32:37;53.83;;;7.20;;
37997;SDS011;24079;51.824;4.682;2023-11-19T12:35:04;40.15;;;7.18;;
37997;SDS011;24079;51.824;4.682;2023-11-19T12:37:30;44.83;;;7.22;;
37997;SDS011;24079;51.824;4.682;2023-11-19T12:39:56;59.65;;;9.75;;
37997;SDS011;24079;51.824;4.682;2023-11-19T12:42:45;40.92;;;6.65;;
37997;SDS011;24079;51.824;4.682;2023-11-19T12:45:10;54.20;;;8.52;;
37997;SDS011;24079;51.824;4.682;2023-11-19T12:47:40;51.05;;;8.30;;
37997;SDS011;24079;51.824;4.682;2023-11-19T12:50:06;42.50;;;7.63;;
37997;SDS011;24079;51.824;4.682;2023-11-19T12:52:36;31.70;;;5.75;;
37997;SDS011;24079;51.824;4.682;2023-11-19T12:55:03;31.80;;;6.03;;
37997;SDS011;24079;51.824;4.682;2023-11-19T12:57:37;48.17;;;6.05;;
37997;SDS011;24079;51.824;4.682;2023-11-19T13:00:05;27.60;;;5.50;;
37997;SDS011;24079;51.824;4.682;2023-11-19T13:02:48;36.08;;;5.07;;
37997;SDS011;24079;51.824;4.682;2023-11-19T13:10:27;38.00;;;6.53;;
37997;SDS011;24079;51.824;4.682;2023-11-19T13:13:07;42.65;;;7.38;;
37997;SDS011;24079;51.824;4.682;2023-11-19T13:15:33;40.47;;;5.82;;
37997;SDS011;24079;51.824;4.682;2023-11-19T13:18:00;41.75;;;6.53;;
37997;SDS011;24079;51.824;4.682;2023-11-19T13:20:27;42.63;;;6.05;;
37997;SDS011;24079;51.824;4.682;2023-11-19T13:22:54;35.58;;;6.75;;
37997;SDS011;24079;51.824;4.682;2023-11-19T13:25:23;40.38;;;5.68;;
37997;SDS011;24079;51.824;4.682;2023-11-19T13:27:49;41.13;;;6.70;;
37997;SDS011;24079;51.824;4.682;2023-11-19T13:30:14;49.80;;;7.22;;
37997;SDS011;24079;51.824;4.682;2023-11-19T13:32:41;53.45;;;6.97;;
37997;SDS011;24079;51.824;4.682;2023-11-19T13:35:08;44.78;;;6.93;;
37997;SDS011;24079;51.824;4.682;2023-11-19T13:37:34;38.67;;;7.10;;
37997;SDS011;24079;51.824;4.682;2023-11-19T13:40:00;43.40;;;6.53;;
37997;SDS011;24079;51.824;4.682;2023-11-19T13:42:25;41.00;;;7.07;;
37997;SDS011;24079;51.824;4.682;2023-11-19T13:44:52;59.05;;;8.30;;
37997;SDS011;24079;51.824;4.682;2023-11-19T13:47:17;44.30;;;6.22;;
37997;SDS011;24079;51.824;4.682;2023-11-19T13:49:44;42.70;;;8.20;;
37997;SDS011;24079;51.824;4.682;2023-11-19T13:52:10;52.58;;;8.68;;
37997;SDS011;24079;51.824;4.682;2023-11-19T13:54:36;44.63;;;7.82;;
37997;SDS011;24079;51.824;4.682;2023-11-19T13:57:02;46.00;;;8.20;;
37997;SDS011;24079;51.824;4.682;2023-11-19T13:59:29;45.95;;;6.80;;
37997;SDS011;24079;51.824;4.682;2023-11-19T14:01:57;52.80;;;7.85;;
37997;SDS011;24079;51.824;4.682;2023-11-19T14:04:23;41.05;;;6.60;;
37997;SDS011;24079;51.824;4.682;2023-11-19T14:06:50;42.17;;;7.25;;
37997;SDS011;24079;51.824;4.682;2023-11-19T14:09:17;45.67;;;7.80;;
37997;SDS011;24079;51.824;4.682;2023-11-19T14:11:43;50.13;;;8.35;;
37997;SDS011;24079;51.824;4.682;2023-11-19T14:14:09;47.60;;;7.63;;
37997;SDS011;24079;51.824;4.682;2023-11-19T14:16:35;39.53;;;7.57;;
37997;SDS011;24079;51.824;4.682;2023-11-19T14:19:00;48.17;;;7.22;;
37997;SDS011;24079;51.824;4.682;2023-11-19T14:21:26;45.40;;;6.55;;
37997;SDS011;24079;51.824;4.682;2023-11-19T14:23:52;39.00;;;6.72;;
37997;SDS011;24079;51.824;4.682;2023-11-19T14:26:18;49.40;;;7.95;;
37997;SDS011;24079;51.824;4.682;2023-11-19T14:28:44;52.05;;;7.97;;
37997;SDS011;24079;51.824;4.682;2023-11-19T14:31:09;56.17;;;7.45;;
37997;SDS011;24079;51.824;4.682;2023-11-19T14:33:35;33.20;;;6.97;;
37997;SDS011;24079;51.824;4.682;2023-11-19T14:36:03;39.83;;;7.15;;
37997;SDS011;24079;51.824;4.682;2023-11-19T14:38:29;47.10;;;7.28;;
37997;SDS011;24079;51.824;4.682;2023-11-19T14:40:55;44.13;;;7.47;;
37997;SDS011;24079;51.824;4.682;2023-11-19T14:43:20;44.53;;;7.28;;
37997;SDS011;24079;51.824;4.682;2023-11-19T14:45:46;41.83;;;7.72;;
37997;SDS011;24079;51.824;4.682;2023-11-19T14:48:11;41.70;;;8.20;;
37997;SDS011;24079;51.824;4.682;2023-11-19T14:50:37;40.97;;;6.55;;
37997;SDS011;24079;51.824;4.682;2023-11-19T14:53:02;36.08;;;6.68;;
37997;SDS011;24079;51.824;4.682;2023-11-19T14:55:28;44.88;;;6.13;;
37997;SDS011;24079;51.824;4.682;2023-11-19T14:57:54;42.78;;;7.07;;
37997;SDS011;24079;51.824;4.682;2023-11-19T15:00:21;39.78;;;6.47;;
37997;SDS011;24079;51.824;4.682;2023-11-19T15:02:46;38.63;;;6.38;;
37997;SDS011;24079;51.824;4.682;2023-11-19T15:05:12;32.13;;;5.70;;
37997;SDS011;24079;51.824;4.682;2023-11-19T15:07:38;42.25;;;6.45;;